createdAt,value
2022-08-21T05:46:46.137Z,20.5
2022-08-21T05:55:26.985Z,19.9
2022-08-21T05:57:06.030Z,20.3
2022-08-21T06:00:05.741Z,20.7
2022-08-21T06:04:10.253Z,20.1
2022-08-21T06:09:56.325Z,20.4
2022-08-21T06:11:29.061Z,20.2
2022-08-21T06:12:38.032Z,19.9
2022-08-21T06:13:42.552Z,20.1
2022-08-21T06:15:37.294Z,20.4
2022-08-21T06:17:48.009Z,20.2
2022-08-21T06:19:34.601Z,20.3
2022-08-21T06:21:11.673Z,20.3
2022-08-21T06:22:20.542Z,19.9
2022-08-21T06:23:44.665Z,20
2022-08-21T06:24:53.401Z,20.2
2022-08-21T06:25:57.929Z,20.1
2022-08-21T06:27:02.362Z,20.4
2022-08-21T06:28:07.009Z,20.3
2022-08-21T06:29:12.797Z,20.2
2022-08-21T06:30:19.866Z,20.2
2022-08-21T06:31:24.273Z,20.3
2022-08-21T06:32:28.790Z,20.5
2022-08-21T06:33:37.481Z,20.4
2022-08-21T06:34:42.929Z,20.4
2022-08-21T06:36:03.929Z,20.4
2022-08-21T06:37:10.105Z,20.2
2022-08-21T06:38:14.169Z,20.2
2022-08-21T06:39:25.014Z,20.3
2022-08-21T06:40:23.737Z,20.2
2022-08-21T06:41:28.001Z,20.4
2022-08-21T06:42:42.868Z,20.4
2022-08-21T06:43:46.717Z,20.5
2022-08-21T06:44:51.225Z,20.4
2022-08-21T06:45:55.861Z,20.5
2022-08-21T06:47:00.233Z,20.4
2022-08-21T06:48:04.510Z,20.4
2022-08-21T06:49:09.037Z,20.5
2022-08-21T06:50:19.449Z,20.5
2022-08-21T06:51:24.005Z,20.4
2022-08-21T06:52:28.725Z,20.4
2022-08-21T06:53:33.249Z,20.6
2022-08-21T06:54:37.486Z,20.5
2022-08-21T06:55:41.885Z,20.5
2022-08-21T06:56:46.469Z,20.6
2022-08-21T06:57:52.364Z,20.4
2022-08-21T06:58:55.489Z,20.5
2022-08-21T06:59:59.869Z,20.1
2022-08-21T07:01:10.607Z,20.1
2022-08-21T07:02:17.545Z,20.4
2022-08-21T07:03:22.677Z,20.2
2022-08-21T07:04:27.405Z,20.2
2022-08-21T07:05:31.741Z,20.4
2022-08-21T07:06:38.431Z,20.4
2022-08-21T07:07:42.824Z,20.3
2022-08-21T07:09:50.289Z,20.2
2022-08-21T07:10:54.644Z,20.4
2022-08-21T07:11:59.493Z,20.3
2022-08-21T07:13:04.743Z,20.2
2022-08-21T07:14:09.122Z,20.3
2022-08-21T07:15:14.021Z,20.4
2022-08-21T07:16:18.821Z,20.4
2022-08-21T07:17:23.549Z,20.4
2022-08-21T07:18:28.246Z,20.4
2022-08-21T07:19:32.730Z,20.6
2022-08-21T07:20:37.069Z,20.5
2022-08-21T07:21:43.288Z,20.6
2022-08-21T07:22:48.523Z,20.7
2022-08-21T07:23:52.877Z,20.5
2022-08-21T07:24:57.289Z,20.7
2022-08-21T07:26:01.845Z,20.6
2022-08-21T07:27:10.236Z,20.4
2022-08-21T07:28:14.399Z,20.4
2022-08-21T07:29:22.112Z,20.7
2022-08-21T07:30:26.529Z,20.8
2022-08-21T07:31:31.145Z,20.8
2022-08-21T07:32:35.368Z,20.2
2022-08-21T07:33:40.057Z,20
2022-08-21T07:34:44.945Z,20.4
2022-08-21T07:35:52.857Z,20.4
2022-08-21T07:36:58.325Z,20.6
2022-08-21T07:38:03.005Z,20.6
2022-08-21T07:39:07.317Z,20.3
2022-08-21T07:40:14.447Z,20.6
2022-08-21T07:41:19.401Z,20.6
2022-08-21T07:42:24.294Z,20.4
2022-08-21T07:43:28.529Z,20.2
2022-08-21T07:44:33.565Z,20.1
2022-08-21T07:45:37.761Z,19.9
2022-08-21T07:46:42.345Z,20.2
2022-08-21T07:47:46.801Z,20.2
2022-08-21T07:48:51.372Z,20.2
2022-08-21T07:49:57.185Z,20.4
2022-08-21T07:51:01.861Z,20.1
2022-08-21T07:52:08.737Z,20.1
2022-08-21T07:53:13.368Z,20.3
2022-08-21T07:54:22.743Z,20.5
2022-08-21T07:55:25.836Z,20.4
2022-08-21T07:56:33.104Z,20.3
2022-08-21T07:58:45.272Z,20.3
2022-08-21T07:59:49.653Z,20.2
2022-08-21T08:00:54.074Z,19.8
2022-08-21T08:01:58.190Z,19.8
2022-08-21T08:03:04.063Z,19.9
2022-08-21T08:04:09.853Z,20
2022-08-21T08:05:14.521Z,20.2
2022-08-21T08:06:18.909Z,20.3
2022-08-21T08:08:29.153Z,20
2022-08-21T08:09:33.740Z,20.2
2022-08-21T08:10:39.029Z,20.3
2022-08-21T08:11:43.585Z,20.4
2022-08-21T08:12:47.856Z,20.5
2022-08-21T08:13:52.170Z,20.5
2022-08-21T08:14:57.072Z,20.6
2022-08-21T08:16:06.473Z,20.2
2022-08-21T08:17:12.268Z,20.1
2022-08-21T08:19:20.257Z,19.9
2022-08-21T08:20:24.756Z,20.2
2022-08-21T08:21:32.077Z,20.3
2022-08-21T08:22:36.484Z,20.3
2022-08-21T08:23:41.657Z,20.3
2022-08-21T08:24:46.381Z,20.1
2022-08-21T08:25:51.164Z,19.9
2022-08-21T08:26:56.282Z,20
2022-08-21T08:28:00.660Z,20.1
2022-08-21T08:29:05.489Z,20.2
2022-08-21T08:30:10.097Z,20.2
2022-08-21T08:31:14.474Z,20
2022-08-21T08:32:18.754Z,20.2
2022-08-21T08:33:23.106Z,20.1
2022-08-21T08:34:28.941Z,20.1
2022-08-21T08:35:33.456Z,20.2
2022-08-21T08:36:38.229Z,20
2022-08-21T08:38:46.697Z,19.9
2022-08-21T08:39:52.938Z,20
2022-08-21T08:40:57.821Z,19.8
2022-08-21T08:42:32.422Z,20.1
2022-08-21T08:43:14.589Z,20
2022-08-21T08:44:18.504Z,19.9
2022-08-21T08:45:25.222Z,19.9
2022-08-21T08:46:29.572Z,19.8
2022-08-21T08:47:46.082Z,19.8
2022-08-21T08:48:58.284Z,20
2022-08-21T08:50:07.975Z,20
2022-08-21T08:51:12.790Z,20
2022-08-21T08:52:18.973Z,20.1
2022-08-21T08:53:28.413Z,20
2022-08-21T08:54:35.626Z,19.7
2022-08-21T08:55:42.784Z,19.7
2022-08-21T08:56:47.217Z,20
2022-08-21T08:57:52.025Z,20.2
2022-08-21T08:58:56.426Z,20
2022-08-21T09:00:05.821Z,19.8
2022-08-21T09:01:10.483Z,19.7
2022-08-21T09:02:17.913Z,19.9
2022-08-21T09:03:22.585Z,20
2022-08-21T09:04:30.989Z,19.8
2022-08-21T09:05:35.369Z,19.6
2022-08-21T09:06:47.020Z,19.6
2022-08-21T09:08:01.540Z,19.6
2022-08-21T09:09:16.281Z,19.7
2022-08-21T09:10:27.585Z,19.7
2022-08-21T09:11:34.174Z,19.5
2022-08-21T09:12:39.333Z,19.3
2022-08-21T09:13:51.865Z,19.5
2022-08-21T09:14:56.502Z,19.7
2022-08-21T09:16:06.033Z,19.7
2022-08-21T09:17:15.861Z,19.4
2022-08-21T09:18:28.013Z,19.5
2022-08-21T09:19:37.700Z,19.5
2022-08-21T09:20:52.118Z,19.5
2022-08-21T09:22:04.160Z,19.7
2022-08-21T09:23:16.200Z,19.8
2022-08-21T09:24:28.744Z,19.6
2022-08-21T09:25:38.660Z,19.8
2022-08-21T09:26:48.493Z,19.9
2022-08-21T09:28:03.144Z,19.7
2022-08-21T09:29:09.768Z,19.6
2022-08-21T09:30:14.046Z,19.4
2022-08-21T09:31:19.249Z,19.8
2022-08-21T09:32:32.487Z,19.9
2022-08-21T09:33:30.946Z,20
2022-08-21T09:34:36.884Z,19.8
2022-08-21T09:35:41.585Z,19.7
2022-08-21T09:36:52.144Z,19.9
2022-08-21T09:37:56.968Z,19.8
2022-08-21T09:39:04.457Z,20
2022-08-21T09:40:09.101Z,20
2022-08-21T09:41:21.361Z,20.2
2022-08-21T09:42:28.713Z,20.1
2022-08-21T09:43:37.816Z,20.3
2022-08-21T09:44:44.559Z,20.2
2022-08-21T09:45:49.161Z,20.2
2022-08-21T09:47:03.552Z,20
2022-08-21T09:48:08.001Z,20.1
2022-08-21T09:49:13.491Z,20.2
2022-08-21T09:50:17.233Z,20.3
2022-08-21T09:51:24.382Z,20.4
2022-08-21T09:52:31.772Z,20.5
2022-08-21T09:53:36.288Z,20.5
2022-08-21T09:54:42.793Z,20.5
2022-08-21T09:55:47.433Z,20.6
2022-08-21T09:56:59.508Z,20.5
2022-08-21T09:58:12.376Z,20.5
2022-08-21T09:59:16.776Z,20.3
2022-08-21T10:00:22.724Z,20.3
2022-08-21T10:01:28.069Z,20.3
2022-08-21T10:02:32.597Z,20.1
2022-08-21T10:03:36.937Z,20.2
2022-08-21T10:04:41.140Z,20
2022-08-21T10:05:45.508Z,20.2
2022-08-21T10:07:00.249Z,20.2
2022-08-21T10:08:10.660Z,20.3
2022-08-21T10:09:21.726Z,20.2
2022-08-21T10:10:25.234Z,20
2022-08-21T10:11:35.004Z,20.3
2022-08-21T10:12:40.485Z,20.1
2022-08-21T10:13:49.841Z,20.2
2022-08-21T10:15:08.651Z,20.5
2022-08-21T10:16:17.260Z,20.5
2022-08-21T10:17:31.708Z,20.5
2022-08-21T10:18:38.565Z,20.5
2022-08-21T10:19:53.152Z,20.5
2022-08-21T10:20:57.616Z,20.4
2022-08-21T10:22:07.308Z,20.4
2022-08-21T10:23:17.533Z,20.5
2022-08-21T10:24:32.211Z,20.1
2022-08-21T10:25:39.688Z,20.1
2022-08-21T10:26:49.137Z,20.2
2022-08-21T10:29:07.616Z,20.2
2022-08-21T10:30:22.376Z,20.1
2022-08-21T10:31:36.837Z,20.4
2022-08-21T10:32:46.112Z,20.3
2022-08-21T10:33:55.556Z,20.5
2022-08-21T10:35:10.104Z,20.5
2022-08-21T10:36:14.852Z,20.5
2022-08-21T10:37:24.256Z,20.4
2022-08-21T10:38:50.774Z,20.6
2022-08-21T10:39:44.160Z,20.6
2022-08-21T10:40:56.280Z,20.3
2022-08-21T10:42:05.642Z,20.2
2022-08-21T10:43:22.804Z,20
2022-08-21T10:44:35.596Z,19.7
2022-08-21T10:45:48.046Z,19.6
2022-08-21T10:47:05.927Z,19.7
2022-08-21T10:48:10.476Z,19.8
2022-08-21T10:49:18.812Z,19.9
2022-08-21T10:50:31.187Z,19.7
2022-08-21T10:51:44.172Z,19.5
2022-08-21T10:52:59.145Z,19.3
2022-08-21T10:54:03.745Z,19.3
2022-08-21T10:55:18.292Z,19.3
2022-08-21T10:56:22.849Z,19.3
2022-08-21T10:57:32.226Z,19.3
2022-08-21T10:58:44.718Z,19.3
2022-08-21T10:59:46.996Z,19.2
2022-08-21T11:00:54.242Z,19.2
2022-08-21T11:02:06.684Z,19.2
2022-08-21T11:03:22.264Z,18.9
2022-08-21T11:04:39.663Z,18.9
2022-08-21T11:05:39.252Z,19
2022-08-21T11:06:49.892Z,18.8
2022-08-21T11:07:57.799Z,19.2
2022-08-21T11:09:07.259Z,19.1
2022-08-21T11:10:16.699Z,19.2
2022-08-21T11:11:24.581Z,19.2
2022-08-21T11:12:33.948Z,19.2
2022-08-21T11:13:46.356Z,19.1
2022-08-21T11:14:52.312Z,19.1
2022-08-21T11:15:59.460Z,19.1
2022-08-21T11:17:03.755Z,19
2022-08-21T11:18:12.003Z,18.5
2022-08-21T11:19:21.792Z,18.4
2022-08-21T11:20:31.243Z,18.6
2022-08-21T11:21:43.252Z,18.4
2022-08-21T11:22:58.901Z,18.5
2022-08-21T11:24:05.677Z,18.5
2022-08-21T11:25:17.920Z,18.8
2022-08-21T11:26:27.868Z,18.4
2022-08-21T11:27:37.249Z,18.3
2022-08-21T11:28:41.604Z,18.6
2022-08-21T11:29:45.924Z,18.6
2022-08-21T11:30:50.455Z,18.7
2022-08-21T11:32:03.300Z,18.7
2022-08-21T11:33:12.816Z,18.7
2022-08-21T11:34:20.300Z,18.4
2022-08-21T11:35:29.868Z,18.3
2022-08-21T11:36:45.291Z,18.4
2022-08-21T11:37:56.415Z,18.7
2022-08-21T11:39:05.988Z,18.7
2022-08-21T11:40:18.735Z,18.6
2022-08-21T11:41:25.812Z,18.5
2022-08-21T11:42:30.379Z,18.4
2022-08-21T11:43:40.107Z,18.4
2022-08-21T11:44:44.871Z,18.4
2022-08-21T11:45:54.351Z,18.3
2022-08-21T11:47:01.451Z,18.1
2022-08-21T11:48:10.708Z,18.1
2022-08-21T11:49:25.498Z,18.1
2022-08-21T11:50:36.403Z,18.3
2022-08-21T11:51:39.740Z,18.4
2022-08-21T11:52:55.632Z,18.1
2022-08-21T11:54:14.395Z,17.9
2022-08-21T11:55:28.960Z,17.8
2022-08-21T11:56:54.708Z,17.8
2022-08-21T11:57:59.356Z,17.5
2022-08-21T11:59:03.975Z,17.7
2022-08-21T12:00:08.557Z,17.8
2022-08-21T12:01:13.352Z,17.8
2022-08-21T12:02:17.960Z,17.8
2022-08-21T12:03:22.224Z,17.8
2022-08-21T12:04:32.403Z,17.8
2022-08-21T12:05:37.632Z,17.8
2022-08-21T12:06:46.915Z,17.8
2022-08-21T12:07:59.232Z,17.3
2022-08-21T12:09:07.519Z,17.8
2022-08-21T12:10:17.157Z,17.9
2022-08-21T12:11:30.527Z,18
2022-08-21T12:12:34.825Z,18
2022-08-21T12:13:40.191Z,18.1
2022-08-21T12:14:54.343Z,17.7
2022-08-21T12:16:06.747Z,17.8
2022-08-21T12:17:17.371Z,17.8
2022-08-21T12:18:29.075Z,17.6
2022-08-21T12:19:39.560Z,17.8
2022-08-21T12:20:45.168Z,17.7
2022-08-21T12:22:04.323Z,17.7
2022-08-21T12:23:15.719Z,17.6
2022-08-21T12:24:20.129Z,17.3
2022-08-21T12:25:29.531Z,17.4
2022-08-21T12:26:41.783Z,17.6
2022-08-21T12:27:49.012Z,17.9
2022-08-21T12:29:01.100Z,17.9
2022-08-21T12:30:10.500Z,17.5
2022-08-21T12:31:26.034Z,17.5
2022-08-21T12:32:40.471Z,17.8
2022-08-21T12:33:49.771Z,17.9
2022-08-21T12:34:56.831Z,18.1
2022-08-21T12:36:14.179Z,18
2022-08-21T12:37:21.512Z,18.1
2022-08-21T12:38:33.555Z,18.3
2022-08-21T12:39:43.725Z,18.4
2022-08-21T12:40:57.779Z,18.4
2022-08-21T12:42:09.055Z,18.1
2022-08-21T12:43:13.435Z,18.2
2022-08-21T12:44:22.947Z,18.3
2022-08-21T12:45:35.343Z,18
2022-08-21T12:46:40.519Z,17.8
2022-08-21T12:47:49.796Z,17.8
2022-08-21T12:49:01.908Z,17.7
2022-08-21T12:50:09.179Z,17.7
2022-08-21T12:51:13.633Z,17.7
2022-08-21T12:52:18.247Z,17.6
2022-08-21T12:53:25.053Z,17.7
2022-08-21T12:54:32.172Z,17.9
2022-08-21T12:55:39.431Z,18.1
2022-08-21T12:56:47.043Z,17.8
2022-08-21T12:58:02.221Z,18
2022-08-21T12:59:11.800Z,17.7
2022-08-21T13:01:42.575Z,18.1
2022-08-21T13:02:49.835Z,17.8
2022-08-21T13:03:55.527Z,17.8
2022-08-21T13:05:04.467Z,17.8
2022-08-21T13:06:15.100Z,17.8
2022-08-21T13:07:30.431Z,17.3
2022-08-21T13:08:41.024Z,17.5
2022-08-21T13:09:53.167Z,17.6
2022-08-21T13:11:09.371Z,17.4
2022-08-21T13:13:44.709Z,17.6
2022-08-21T13:14:48.958Z,17.3
2022-08-21T13:16:00.654Z,17.3
2022-08-21T13:17:16.478Z,17.1
2022-08-21T13:19:41.878Z,17
2022-08-21T13:22:31.048Z,17
2022-08-21T13:23:18.686Z,16.8
2022-08-21T13:24:42.173Z,16.8
2022-08-21T13:25:42.050Z,16.8
2022-08-21T13:26:47.407Z,16.8
2022-08-21T13:27:52.577Z,16.7
2022-08-21T13:29:02.102Z,16.9
2022-08-21T13:30:14.023Z,17.1
2022-08-21T13:31:25.982Z,16.9
2022-08-21T13:32:40.371Z,16.8
2022-08-21T13:33:54.424Z,16.7
2022-08-21T13:35:04.864Z,16.4
2022-08-21T13:36:10.473Z,16.5
2022-08-21T13:37:19.758Z,16.3
2022-08-21T13:38:29.091Z,16.5
2022-08-21T13:39:34.430Z,16.5
2022-08-21T13:40:44.123Z,16.5
2022-08-21T13:41:53.470Z,16.4
2022-08-21T13:43:02.950Z,16.5
2022-08-21T13:45:31.488Z,16.9
2022-08-21T13:46:35.866Z,17
2022-08-21T13:47:40.606Z,17.1
2022-08-21T13:48:44.918Z,17.2
2022-08-21T13:49:49.221Z,17.2
2022-08-21T13:50:53.957Z,17
2022-08-21T13:51:58.689Z,17.3
2022-08-21T13:53:04.297Z,17.2
2022-08-21T13:54:23.627Z,17
2022-08-21T13:55:37.537Z,16.7
2022-08-21T13:56:41.913Z,16.7
2022-08-21T13:57:51.237Z,17
2022-08-21T13:59:00.669Z,17.3
2022-08-21T14:00:05.426Z,17.3
2022-08-21T14:02:59.823Z,17.1
2022-08-21T14:04:07.937Z,17
2022-08-21T14:06:39.462Z,16.8
2022-08-21T14:07:44.146Z,16.9
2022-08-21T14:08:50.634Z,16.7
2022-08-21T14:09:59.754Z,16.8
2022-08-21T14:11:14.294Z,16.7
2022-08-21T14:12:24.561Z,16.7
2022-08-21T14:13:33.945Z,16.9
2022-08-21T14:14:42.988Z,16.7
2022-08-21T14:15:57.302Z,16.9
2022-08-21T14:18:38.370Z,16.9
2022-08-21T14:19:53.009Z,16.9
2022-08-21T14:20:57.554Z,16.9
2022-08-21T14:22:11.950Z,17.1
2022-08-21T14:23:26.429Z,17.2
2022-08-21T14:24:35.875Z,16.9
2022-08-21T14:25:43.883Z,16.8
2022-08-21T14:26:48.227Z,16.8
2022-08-21T14:27:56.441Z,16.8
2022-08-21T14:29:09.601Z,16.9
2022-08-21T14:30:14.321Z,16.8
2022-08-21T14:31:23.737Z,17
2022-08-21T14:32:28.121Z,16.9
2022-08-21T14:33:32.645Z,17.1
2022-08-21T14:34:37.042Z,17.2
2022-08-21T14:35:46.698Z,17
2022-08-21T14:36:52.349Z,17
2022-08-21T14:38:03.653Z,16.9
2022-08-21T14:39:20.305Z,17
2022-08-21T14:40:26.877Z,17
2022-08-21T14:41:46.209Z,16.9
2022-08-21T14:42:51.557Z,16.5
2022-08-21T14:45:46.265Z,16.7
2022-08-21T14:46:56.178Z,16.8
2022-08-21T14:49:28.178Z,17.1
2022-08-21T14:50:33.466Z,17.1
2022-08-21T14:53:13.173Z,17
2022-08-21T14:54:17.485Z,17
2022-08-21T14:55:26.797Z,16.9
2022-08-21T14:56:31.130Z,17.1
2022-08-21T14:57:42.389Z,17.2
2022-08-21T14:58:46.686Z,17
2022-08-21T15:02:49.206Z,16.9
2022-08-21T15:03:52.767Z,16.8
2022-08-21T15:04:57.090Z,17
2022-08-21T15:06:02.362Z,16.9
2022-08-21T15:07:06.565Z,16.9
2022-08-21T15:08:10.745Z,16.9
2022-08-21T15:09:25.245Z,17.2
2022-08-21T15:10:29.605Z,17
2022-08-21T15:11:41.550Z,17.1
2022-08-21T15:12:41.577Z,17
2022-08-21T15:13:46.849Z,17.2
2022-08-21T15:14:51.399Z,17.3
2022-08-21T15:15:55.553Z,17.5
2022-08-21T15:16:59.666Z,17.4
2022-08-21T15:18:15.881Z,17.5
2022-08-21T15:19:23.309Z,17.5
2022-08-21T15:20:27.458Z,17.3
2022-08-21T15:21:31.661Z,17.6
2022-08-21T15:22:35.979Z,17.3
2022-08-21T15:23:46.178Z,17.4
2022-08-21T15:25:00.441Z,17.5
2022-08-21T15:26:04.937Z,17.6
2022-08-21T15:27:09.177Z,17.6
2022-08-21T15:29:44.742Z,17.4
2022-08-21T15:30:51.198Z,17.2
2022-08-21T15:32:01.593Z,17.2
2022-08-21T15:33:15.902Z,17.1
2022-08-21T15:34:21.105Z,17.2
2022-08-21T15:35:45.449Z,17
2022-08-21T15:37:10.630Z,17.1
2022-08-21T15:39:49.662Z,17.1
2022-08-21T15:40:53.395Z,16.8
2022-08-21T15:41:57.751Z,16.8
2022-08-21T15:43:02.581Z,17
2022-08-21T15:44:09.013Z,17.2
2022-08-21T15:45:13.779Z,17.3
2022-08-21T15:46:18.529Z,17
2022-08-21T15:47:22.989Z,17.1
2022-08-21T15:48:27.112Z,16.9
2022-08-21T15:49:51.281Z,17.2
2022-08-21T15:50:56.678Z,17.2
2022-08-21T15:52:07.853Z,17.3
2022-08-21T15:53:24.141Z,17.4
2022-08-21T15:54:28.309Z,17.7
2022-08-21T15:55:36.441Z,17.7
2022-08-21T15:56:40.641Z,17.8
2022-08-21T15:57:44.887Z,17.9
2022-08-21T15:58:49.134Z,17.7
2022-08-21T15:59:57.337Z,17.8
2022-08-21T16:01:01.733Z,17.6
2022-08-21T16:02:11.039Z,17.5
2022-08-21T16:03:15.441Z,17.5
2022-08-21T16:04:21.761Z,17.4
2022-08-21T16:06:53.360Z,17.6
2022-08-21T16:07:56.781Z,17.6
2022-08-21T16:09:00.901Z,17.7
2022-08-21T16:10:07.189Z,17.5
2022-08-21T16:11:11.277Z,17.6
2022-08-21T16:12:15.554Z,17.5
2022-08-21T16:13:22.441Z,17.6
2022-08-21T16:14:26.537Z,17.8
2022-08-21T16:15:31.716Z,17.9
2022-08-21T16:16:36.341Z,17.7
2022-08-21T16:17:40.681Z,17.5
2022-08-21T16:18:45.082Z,17.6
2022-08-21T16:19:54.425Z,17.8
2022-08-21T16:21:08.605Z,17.7
2022-08-21T16:22:14.218Z,17.6
2022-08-21T16:23:19.627Z,17.3
2022-08-21T16:24:23.764Z,17.4
2022-08-21T16:25:28.020Z,17.4
2022-08-21T16:26:32.629Z,17.3
2022-08-21T16:27:36.901Z,17.5
2022-08-21T16:28:41.189Z,17.5
2022-08-21T16:29:45.677Z,17.4
2022-08-21T16:31:00.317Z,17.4
2022-08-21T16:32:09.801Z,17.5
2022-08-21T16:33:14.049Z,17.7
2022-08-21T16:34:27.181Z,17.7
2022-08-21T16:35:32.429Z,17.7
2022-08-21T16:36:42.581Z,17.7
2022-08-21T16:37:50.011Z,17.5
2022-08-21T16:38:52.377Z,17.3
2022-08-21T16:39:57.670Z,17.4
2022-08-21T16:41:07.893Z,17.2
2022-08-21T16:42:14.529Z,17.5
2022-08-21T16:43:19.045Z,17.7
2022-08-21T16:44:24.341Z,17.7
2022-08-21T16:45:32.555Z,17.3
2022-08-21T16:46:34.279Z,17.4
2022-08-21T16:48:57.965Z,17.2
2022-08-21T16:50:06.393Z,17.3
2022-08-21T16:52:40.322Z,17.5
2022-08-21T16:53:44.426Z,17.7
2022-08-21T16:56:08.888Z,17.6
2022-08-21T16:57:22.285Z,17.4
2022-08-21T16:59:46.820Z,17.6
2022-08-21T17:02:10.333Z,17.4
2022-08-21T17:03:14.609Z,17.7
2022-08-21T17:04:19.165Z,17.8
2022-08-21T17:05:28.265Z,17.3
2022-08-21T17:06:34.628Z,17.6
2022-08-21T17:07:38.877Z,17.7
2022-08-21T17:08:43.269Z,17.8
2022-08-21T17:09:47.573Z,17.8
2022-08-21T17:10:58.009Z,17.6
2022-08-21T17:12:04.429Z,17.5
2022-08-21T17:13:09.943Z,17.7
2022-08-21T17:14:14.079Z,17.7
2022-08-21T17:15:21.414Z,17.6
2022-08-21T17:16:26.604Z,17.2
2022-08-21T17:17:40.996Z,17.3
2022-08-21T17:18:51.230Z,17.4
2022-08-21T17:19:54.802Z,17.5
2022-08-21T17:21:04.243Z,17.4
2022-08-21T17:22:08.523Z,17.5
2022-08-21T17:23:18.842Z,17.6
2022-08-21T17:24:23.287Z,17.4
2022-08-21T17:25:32.351Z,17.6
2022-08-21T17:26:37.631Z,17.6
2022-08-21T17:27:47.273Z,17.6
2022-08-21T17:28:54.816Z,17.6
2022-08-21T17:31:26.396Z,17.5
2022-08-21T17:32:32.759Z,17.4
2022-08-21T17:33:37.075Z,17
2022-08-21T17:34:51.407Z,17.4
2022-08-21T17:35:56.687Z,17.5
2022-08-21T17:37:07.878Z,17.5
2022-08-21T17:38:14.833Z,17.7
2022-08-21T17:39:22.370Z,17.6
2022-08-21T17:40:21.250Z,17.5
2022-08-21T17:41:25.816Z,17.4
2022-08-21T17:42:30.489Z,17.5
2022-08-21T17:43:34.892Z,17.4
2022-08-21T17:44:40.354Z,17.3
2022-08-21T17:45:44.886Z,17.4
2022-08-21T17:46:50.363Z,17.3
2022-08-21T17:47:55.770Z,17.4
2022-08-21T17:49:00.310Z,17.5
2022-08-21T17:50:04.691Z,17.5
2022-08-21T17:51:11.105Z,17.6
2022-08-21T17:52:17.314Z,17.1
2022-08-21T17:53:23.691Z,17.4
2022-08-21T17:54:30.110Z,17.5
2022-08-21T17:55:37.540Z,17.6
2022-08-21T17:58:01.212Z,17.6
2022-08-21T17:59:06.964Z,17.4
2022-08-21T18:00:14.375Z,17.7
2022-08-21T18:01:18.821Z,17.7
2022-08-21T18:02:24.421Z,17.9
2022-08-21T18:03:38.895Z,17.7
2022-08-21T18:04:43.232Z,17.9
2022-08-21T18:05:49.901Z,17.9
2022-08-21T18:06:54.356Z,17.9
2022-08-21T18:07:58.616Z,17.5
2022-08-21T18:09:02.970Z,17.6
2022-08-21T18:10:07.703Z,17.5
2022-08-21T18:11:23.232Z,17.1
2022-08-21T18:12:23.772Z,17.2
2022-08-21T18:13:28.284Z,17.2
2022-08-21T18:14:39.480Z,17.1
2022-08-21T18:15:44.023Z,16.9
2022-08-21T18:16:48.488Z,17.3
2022-08-21T18:17:53.465Z,17.3
2022-08-21T18:18:58.187Z,17.2
2022-08-21T18:20:02.795Z,17.2
2022-08-21T18:21:07.135Z,17.2
2022-08-21T18:22:22.816Z,17.5
2022-08-21T18:23:43.642Z,17.3
2022-08-21T18:24:37.908Z,17.5
2022-08-21T18:25:42.464Z,17.2
2022-08-21T18:26:46.879Z,17.1
2022-08-21T18:28:01.299Z,17.3
2022-08-21T18:29:05.780Z,17.3
2022-08-21T18:30:09.955Z,17.3
2022-08-21T18:31:19.671Z,17.2
2022-08-21T18:32:30.407Z,17.2
2022-08-21T18:33:31.036Z,17.4
2022-08-21T18:34:37.507Z,17.5
2022-08-21T18:35:42.348Z,17.6
2022-08-21T18:36:51.866Z,17.8
2022-08-21T18:38:06.312Z,17.6
2022-08-21T18:39:34.759Z,17.6
2022-08-21T18:40:17.260Z,17.4
2022-08-21T18:41:21.751Z,17.7
2022-08-21T18:42:33.844Z,17.7
2022-08-21T18:43:40.292Z,17.6
2022-08-21T18:44:47.072Z,17.5
2022-08-21T18:45:53.357Z,17.4
2022-08-21T18:47:06.224Z,17.6
2022-08-21T18:48:10.764Z,17.5
2022-08-21T18:49:15.212Z,17.7
2022-08-21T18:50:20.712Z,17.7
2022-08-21T18:53:24.224Z,18
2022-08-21T18:54:20.843Z,18.1
2022-08-21T18:55:26.143Z,18
2022-08-21T18:56:30.633Z,18.1
2022-08-21T19:00:51.694Z,18
2022-08-21T19:01:57.143Z,17.9
2022-08-21T19:03:01.998Z,17.9
2022-08-21T19:04:05.965Z,17.8
2022-08-21T19:05:15.287Z,18
2022-08-21T19:06:19.866Z,18
2022-08-21T19:07:26.328Z,18
2022-08-21T19:08:31.816Z,17.7
2022-08-21T19:09:36.512Z,17.7
2022-08-21T19:10:42.784Z,17.8
2022-08-21T19:13:30.571Z,18
2022-08-21T19:14:35.008Z,17.5
2022-08-21T19:15:39.352Z,17.8
2022-08-21T19:16:46.953Z,17.8
2022-08-21T19:17:50.586Z,17.4
2022-08-21T19:18:52.563Z,17.6
2022-08-21T19:19:56.808Z,17.6
2022-08-21T19:21:01.323Z,17.4
2022-08-21T19:22:05.871Z,17.5
2022-08-21T19:23:15.428Z,17.7
2022-08-21T19:24:23.046Z,17.9
2022-08-21T19:25:33.176Z,18
2022-08-21T19:26:36.325Z,18
2022-08-21T19:27:50.932Z,17.9
2022-08-21T19:28:55.339Z,17.8
2022-08-21T19:29:58.952Z,18
2022-08-21T19:32:18.268Z,18
2022-08-21T19:33:44.253Z,18
2022-08-21T19:34:47.390Z,18
2022-08-21T19:37:13.381Z,18
2022-08-21T19:38:18.077Z,18.2
2022-08-21T19:39:22.355Z,18.3
2022-08-21T19:42:06.995Z,18
2022-08-21T19:43:11.668Z,18.2
2022-08-21T19:44:15.856Z,18.3
2022-08-21T19:46:26.684Z,18
2022-08-21T19:47:41.136Z,17.6
2022-08-21T19:50:35.187Z,17.7
2022-08-21T19:51:44.468Z,17.2
2022-08-21T19:54:19.075Z,17.6
2022-08-21T19:56:44.728Z,17.6
2022-08-21T19:59:37.500Z,17.6
2022-08-21T20:01:49.595Z,17.8
2022-08-21T20:04:30.088Z,17.3
2022-08-21T20:06:56.537Z,17.7
2022-08-21T20:08:01.844Z,17.8
2022-08-21T20:09:07.674Z,17.8
2022-08-21T20:10:11.056Z,18
2022-08-21T20:11:15.480Z,18
2022-08-21T20:12:32.187Z,17.9
2022-08-21T20:13:43.291Z,18.1
2022-08-21T20:17:55.896Z,17.8
2022-08-21T20:19:00.560Z,17.8
2022-08-21T20:20:05.064Z,17.9
2022-08-21T20:21:09.280Z,18.2
2022-08-21T20:22:15.857Z,18
2022-08-21T20:23:30.725Z,18.2
2022-08-21T20:24:35.196Z,18
2022-08-21T20:25:39.761Z,17.7
2022-08-21T20:28:13.178Z,17.7
2022-08-21T20:29:23.811Z,17.9
2022-08-21T20:30:23.231Z,17.9
2022-08-21T20:31:27.769Z,18
2022-08-21T20:32:33.824Z,17.8
2022-08-21T20:33:41.608Z,17.9
2022-08-21T20:34:45.961Z,18
2022-08-21T20:35:50.520Z,18.1
2022-08-21T20:38:25.674Z,18.1
2022-08-21T20:39:36.543Z,18.2
2022-08-21T20:40:41.960Z,18.1
2022-08-21T20:41:52.508Z,17.9
2022-08-21T20:43:17.213Z,18
2022-08-21T20:44:21.660Z,17.8
2022-08-21T20:45:26.044Z,18.1
2022-08-21T20:49:26.852Z,18.3
2022-08-21T20:50:36.957Z,18
2022-08-21T20:54:48.584Z,18.3
2022-08-21T20:56:12.791Z,18.1
2022-08-21T20:57:16.700Z,18.2
2022-08-21T20:58:33.327Z,18.1
2022-08-21T20:59:37.832Z,18.2
2022-08-21T21:03:45.872Z,18.1
2022-08-21T21:04:55.381Z,18.1
2022-08-21T21:06:04.711Z,18
2022-08-21T21:07:10.216Z,17.6
2022-08-21T21:08:25.311Z,17.8
2022-08-21T21:10:59.880Z,17.9
2022-08-21T21:12:14.239Z,17.9
2022-08-21T21:13:23.880Z,17.9
2022-08-21T21:14:31.060Z,17.9
2022-08-21T21:15:52.294Z,17.9
2022-08-21T21:16:56.864Z,17.8
2022-08-21T21:18:01.261Z,18.1
2022-08-21T21:19:11.101Z,17.8
2022-08-21T21:20:20.336Z,17.8
2022-08-21T21:21:35.540Z,18
2022-08-21T21:23:00.227Z,18
2022-08-21T21:24:09.448Z,18
2022-08-21T21:26:29.100Z,18.2
2022-08-21T21:27:48.870Z,18.1
2022-08-21T21:29:08.549Z,18.1
2022-08-21T21:30:18.664Z,18
2022-08-21T21:32:58.405Z,18.1
2022-08-21T21:34:03.800Z,17.8
2022-08-21T21:35:08.032Z,18.1
2022-08-21T21:36:13.517Z,18.2
2022-08-21T21:38:53.443Z,18
2022-08-21T21:40:02.985Z,18.2
2022-08-21T21:41:17.960Z,18.3
2022-08-21T21:42:33.368Z,18.3
2022-08-21T21:43:56.501Z,18.3
2022-08-21T21:45:06.875Z,18.4
2022-08-21T21:46:17.128Z,18.3
2022-08-21T21:47:31.775Z,17.9
2022-08-21T21:48:41.327Z,17.9
2022-08-21T21:51:14.356Z,17.8
2022-08-21T21:52:22.645Z,18
2022-08-21T21:53:37.899Z,18.3
2022-08-21T21:54:47.487Z,18.3
2022-08-21T21:55:58.735Z,18.3
2022-08-21T21:57:13.966Z,18.1
2022-08-21T21:59:59.723Z,18.2
2022-08-21T22:01:19.411Z,17.8
2022-08-21T22:04:20.413Z,18
2022-08-21T22:05:28.035Z,17.8
2022-08-21T22:06:39.003Z,17.9
2022-08-21T22:07:55.171Z,17.9
2022-08-21T22:09:10.719Z,18
2022-08-21T22:10:30.442Z,17.6
2022-08-21T22:14:27.719Z,17.7
2022-08-21T22:15:32.045Z,17.7
2022-08-21T22:20:03.755Z,17.6
2022-08-21T22:21:08.165Z,17.6
2022-08-21T22:22:15.543Z,17.9
2022-08-21T22:23:19.780Z,17.8
2022-08-21T22:24:27.474Z,17.8
2022-08-21T22:25:32.627Z,17.6
2022-08-21T22:26:37.099Z,17.5
2022-08-21T22:30:38.563Z,17.2
2022-08-21T22:31:42.791Z,17.5
2022-08-21T22:32:57.611Z,17.5
2022-08-21T22:34:06.800Z,17.7
2022-08-21T22:35:12.040Z,17.6
2022-08-21T22:36:23.047Z,17.7
2022-08-21T22:37:27.273Z,17.7
2022-08-21T22:38:47.659Z,17.6
2022-08-21T22:39:51.979Z,17.7
2022-08-21T22:40:56.172Z,17.6
2022-08-21T22:42:11.157Z,17.5
2022-08-21T22:43:15.160Z,17.6
2022-08-21T22:44:19.447Z,17.6
2022-08-21T22:45:23.780Z,17.5
2022-08-21T22:46:28.339Z,17.4
2022-08-21T22:47:40.687Z,17.6
2022-08-21T22:50:55.684Z,17.5
2022-08-21T22:52:02.905Z,17.8
2022-08-21T22:53:15.339Z,17.5
2022-08-21T22:54:24.573Z,17.6
2022-08-21T22:55:49.072Z,17.6